createdAt,value
2018-03-28T00:00:55.008Z,86.20
2018-03-28T00:03:23.246Z,86.80
2018-03-28T00:05:51.011Z,86.20
2018-03-28T00:08:18.476Z,86.30
2018-03-28T00:10:45.916Z,86.30
2018-03-28T00:13:13.397Z,86.30
2018-03-28T00:15:40.876Z,86.30
2018-03-28T00:18:08.338Z,86.30
2018-03-28T00:20:36.568Z,86.40
2018-03-28T00:23:04.041Z,86.30
2018-03-28T00:25:31.518Z,86.40
2018-03-28T00:27:58.986Z,86.40
2018-03-28T00:30:26.460Z,86.50
2018-03-28T00:32:53.929Z,86.50
2018-03-28T00:35:21.379Z,86.50
2018-03-28T00:37:48.837Z,86.50
2018-03-28T00:40:16.326Z,86.70
2018-03-28T00:42:43.792Z,86.60
2018-03-28T00:45:11.244Z,86.60
2018-03-28T00:47:38.719Z,86.60
2018-03-28T00:50:06.201Z,86.60
2018-03-28T00:52:33.674Z,86.60
2018-03-28T00:55:01.134Z,86.50
2018-03-28T00:57:28.608Z,86.60
2018-03-28T00:59:56.080Z,86.70
2018-03-28T01:02:23.561Z,86.70
2018-03-28T01:04:51.012Z,86.70
2018-03-28T01:07:18.484Z,86.70
2018-03-28T01:09:45.936Z,86.80
2018-03-28T01:12:13.384Z,86.90
2018-03-28T01:14:40.854Z,86.90
2018-03-28T01:17:08.350Z,86.90
2018-03-28T01:19:35.809Z,86.90
2018-03-28T01:22:03.267Z,86.80
2018-03-28T01:24:30.733Z,86.80
2018-03-28T01:26:58.874Z,86.80
2018-03-28T01:29:26.329Z,86.90
2018-03-28T01:31:53.772Z,86.80
2018-03-28T01:34:21.270Z,86.80
2018-03-28T01:36:48.729Z,87.00
2018-03-28T01:39:16.172Z,87.20
2018-03-28T01:41:43.665Z,87.10
2018-03-28T01:44:11.121Z,87.10
2018-03-28T01:46:38.601Z,87.30
2018-03-28T01:49:06.054Z,87.30
2018-03-28T01:51:33.515Z,87.40
2018-03-28T01:54:00.982Z,87.40
2018-03-28T01:56:28.483Z,87.50
2018-03-28T01:58:55.941Z,87.50
2018-03-28T02:01:23.406Z,87.60
2018-03-28T02:03:50.880Z,87.70
2018-03-28T02:06:18.369Z,87.80
2018-03-28T02:08:45.824Z,87.80
2018-03-28T02:11:13.479Z,87.80
2018-03-28T02:13:40.974Z,87.80
2018-03-28T02:16:08.426Z,87.90
2018-03-28T02:18:35.893Z,87.90
2018-03-28T02:21:03.358Z,88.00
2018-03-28T02:23:31.578Z,88.20
2018-03-28T02:25:59.041Z,88.10
2018-03-28T02:28:26.493Z,88.10
2018-03-28T02:30:53.958Z,88.30
2018-03-28T02:33:21.418Z,88.10
2018-03-28T02:35:49.651Z,88.10
2018-03-28T02:38:17.097Z,88.00
2018-03-28T02:40:44.574Z,88.10
2018-03-28T02:43:12.031Z,88.10
2018-03-28T02:45:39.494Z,88.70
2018-03-28T02:48:06.981Z,88.00
2018-03-28T02:50:34.454Z,88.10
2018-03-28T02:53:01.929Z,88.10
2018-03-28T02:55:29.397Z,88.10
2018-03-28T02:57:56.880Z,87.90
2018-03-28T03:00:24.329Z,87.90
2018-03-28T03:02:51.818Z,87.80
2018-03-28T03:05:19.289Z,87.90
2018-03-28T03:07:46.761Z,87.90
2018-03-28T03:10:14.247Z,87.80
2018-03-28T03:12:41.817Z,87.90
2018-03-28T03:15:09.269Z,87.80
2018-03-28T03:17:36.729Z,87.60
2018-03-28T03:20:04.221Z,87.80
2018-03-28T03:22:31.674Z,87.60
2018-03-28T03:24:59.126Z,87.40
2018-03-28T03:27:26.597Z,87.30
2018-03-28T03:29:54.074Z,87.20
2018-03-28T03:32:21.528Z,87.40
2018-03-28T03:34:49.004Z,87.40
2018-03-28T03:37:16.474Z,87.40
2018-03-28T03:39:43.921Z,87.30
2018-03-28T03:42:11.408Z,87.30
2018-03-28T03:44:38.894Z,87.30
2018-03-28T03:47:06.342Z,87.20
2018-03-28T03:49:33.820Z,87.20
2018-03-28T03:52:01.270Z,87.20
2018-03-28T03:54:28.744Z,87.20
2018-03-28T03:56:56.198Z,87.20
2018-03-28T03:59:24.425Z,87.20
2018-03-28T04:01:51.893Z,87.20
2018-03-28T04:04:19.378Z,87.20
2018-03-28T04:06:46.851Z,87.30
2018-03-28T04:09:14.327Z,87.40
2018-03-28T04:11:41.777Z,87.50
2018-03-28T04:14:09.245Z,87.60
2018-03-28T04:16:36.712Z,87.60
2018-03-28T04:19:04.169Z,87.60
2018-03-28T04:21:31.623Z,87.70
2018-03-28T04:23:59.072Z,87.70
2018-03-28T04:26:27.314Z,87.70
2018-03-28T04:28:54.804Z,87.70
2018-03-28T04:31:22.281Z,87.70
2018-03-28T04:33:49.740Z,87.70
2018-03-28T04:36:18.070Z,87.70
2018-03-28T04:38:46.313Z,87.80
2018-03-28T04:41:13.769Z,87.80
2018-03-28T04:43:41.242Z,87.80
2018-03-28T04:46:08.866Z,87.90
2018-03-28T04:48:36.325Z,87.90
2018-03-28T04:51:04.545Z,88.20
2018-03-28T04:53:32.026Z,88.10
2018-03-28T04:55:59.528Z,88.10
2018-03-28T04:58:26.973Z,88.20
2018-03-28T05:00:54.421Z,88.10
2018-03-28T05:03:21.892Z,88.30
2018-03-28T05:05:49.345Z,88.30
2018-03-28T05:08:16.848Z,88.10
2018-03-28T05:10:44.347Z,87.90
2018-03-28T05:13:11.825Z,87.50
2018-03-28T05:15:39.324Z,87.60
2018-03-28T05:18:06.810Z,87.60
2018-03-28T05:20:34.281Z,87.60
2018-03-28T05:23:01.744Z,87.50
2018-03-28T05:25:29.209Z,87.50
2018-03-28T05:27:56.677Z,87.50
2018-03-28T05:30:24.905Z,87.40
2018-03-28T05:32:52.347Z,87.30
2018-03-28T05:35:19.817Z,87.20
2018-03-28T05:37:47.299Z,87.20
2018-03-28T05:40:15.543Z,87.10
2018-03-28T05:42:43.755Z,87.10
2018-03-28T05:45:11.232Z,87.10
2018-03-28T05:47:38.685Z,87.00
2018-03-28T05:50:06.927Z,87.00
2018-03-28T05:52:34.413Z,86.90
2018-03-28T05:55:01.867Z,86.90
2018-03-28T05:57:29.393Z,86.80
2018-03-28T05:59:57.625Z,86.90
2018-03-28T06:02:25.074Z,86.90
2018-03-28T06:04:52.546Z,86.90
2018-03-28T06:07:20.003Z,87.00
2018-03-28T06:09:47.455Z,86.90
2018-03-28T06:12:14.933Z,86.80
2018-03-28T06:14:42.398Z,86.80
2018-03-28T06:17:09.848Z,86.90
2018-03-28T06:19:38.070Z,86.90
2018-03-28T06:22:05.553Z,86.80
2018-03-28T06:24:33.024Z,86.60
2018-03-28T06:27:00.482Z,86.30
2018-03-28T06:29:27.952Z,86.50
2018-03-28T06:31:55.460Z,86.40
2018-03-28T06:34:22.951Z,86.50
2018-03-28T06:36:51.187Z,86.40
2018-03-28T06:39:18.660Z,86.40
2018-03-28T06:41:46.149Z,86.40
2018-03-28T06:44:13.594Z,86.20
2018-03-28T06:46:41.067Z,86.10
2018-03-28T06:49:08.512Z,86.10
2018-03-28T06:51:35.989Z,86.20
2018-03-28T06:54:03.451Z,86.30
2018-03-28T06:56:30.898Z,86.30
2018-03-28T06:58:58.368Z,86.50
2018-03-28T07:01:26.605Z,86.60
2018-03-28T07:03:54.074Z,86.50
2018-03-28T07:06:21.529Z,86.40
2018-03-28T07:08:48.986Z,86.30
2018-03-28T07:11:16.461Z,86.30
2018-03-28T07:13:43.953Z,86.40
2018-03-28T07:16:11.410Z,86.60
2018-03-28T07:18:39.799Z,86.90
2018-03-28T07:21:07.292Z,87.20
2018-03-28T07:23:34.779Z,87.20
2018-03-28T07:26:02.234Z,86.70
2018-03-28T07:28:29.716Z,86.80
2018-03-28T07:30:57.180Z,86.90
2018-03-28T07:33:24.675Z,87.00
2018-03-28T07:35:52.117Z,86.80
2018-03-28T07:38:19.576Z,85.90
2018-03-28T07:40:47.023Z,85.70
2018-03-28T07:43:14.597Z,84.80
2018-03-28T07:45:42.044Z,84.20
2018-03-28T07:48:09.503Z,84.10
2018-03-28T07:50:36.982Z,82.30
2018-03-28T07:53:05.229Z,81.80
2018-03-28T07:55:32.692Z,81.80
2018-03-28T07:58:00.139Z,81.00
2018-03-28T08:00:27.609Z,81.70
2018-03-28T08:02:55.189Z,81.20
2018-03-28T08:05:22.657Z,80.80
2018-03-28T08:07:50.206Z,81.00
2018-03-28T08:10:17.675Z,81.50
2018-03-28T08:12:45.121Z,81.60
2018-03-28T08:15:13.369Z,79.50
2018-03-28T08:17:40.853Z,79.40
2018-03-28T08:20:08.302Z,79.40
2018-03-28T08:22:35.770Z,80.00
2018-03-28T08:25:03.311Z,80.30
2018-03-28T08:27:30.764Z,79.30
2018-03-28T08:29:59.011Z,78.30
2018-03-28T08:32:26.501Z,78.20
2018-03-28T08:34:53.948Z,78.70
2018-03-28T08:37:21.454Z,78.30
2018-03-28T08:39:49.670Z,77.50
2018-03-28T08:42:17.138Z,77.50
2018-03-28T08:44:45.366Z,75.20
2018-03-28T08:47:12.932Z,75.20
2018-03-28T08:49:40.386Z,76.00
2018-03-28T08:52:07.859Z,76.00
2018-03-28T08:54:36.266Z,73.70
2018-03-28T08:57:03.737Z,73.70
2018-03-28T08:59:31.187Z,72.70
2018-03-28T09:01:58.742Z,71.60
2018-03-28T09:04:26.145Z,71.30
2018-03-28T09:06:53.609Z,71.70
2018-03-28T09:09:21.073Z,72.70
2018-03-28T09:11:48.542Z,72.10
2018-03-28T09:14:16.006Z,71.00
2018-03-28T09:16:43.486Z,70.80
2018-03-28T09:19:11.388Z,72.60
2018-03-28T09:21:38.842Z,71.10
2018-03-28T09:24:06.305Z,71.50
2018-03-28T09:26:33.787Z,71.60
2018-03-28T09:29:01.310Z,70.30
2018-03-28T09:31:28.772Z,69.60
2018-03-28T09:33:56.237Z,69.40
2018-03-28T09:36:24.477Z,70.00
2018-03-28T09:38:51.964Z,70.00
2018-03-28T09:41:20.228Z,68.90
2018-03-28T09:43:47.673Z,68.90
2018-03-28T09:46:15.190Z,70.60
2018-03-28T09:48:42.673Z,69.50
2018-03-28T09:51:10.902Z,67.40
2018-03-28T09:53:38.370Z,67.40
2018-03-28T09:56:05.856Z,66.30
2018-03-28T09:58:34.062Z,67.70
2018-03-28T10:01:07.149Z,67.70
2018-03-28T10:03:34.629Z,68.00
2018-03-28T10:06:02.344Z,67.60
2018-03-28T10:08:29.815Z,67.90
2018-03-28T10:10:58.035Z,67.30
2018-03-28T10:13:25.524Z,67.20
2018-03-28T10:15:53.022Z,68.20
2018-03-28T10:18:20.472Z,67.90
2018-03-28T10:20:47.961Z,67.50
2018-03-28T10:23:15.408Z,67.70
2018-03-28T10:25:42.893Z,67.40
2018-03-28T10:28:10.349Z,68.30
2018-03-28T10:30:37.810Z,68.20
2018-03-28T10:33:05.300Z,68.60
2018-03-28T10:35:32.752Z,69.30
2018-03-28T10:38:00.256Z,69.40
2018-03-28T10:40:28.402Z,70.00
2018-03-28T10:42:55.861Z,70.30
2018-03-28T10:45:23.365Z,70.40
2018-03-28T10:47:50.821Z,69.40
2018-03-28T10:50:18.290Z,70.00
2018-03-28T10:52:45.745Z,70.60
2018-03-28T10:55:13.298Z,70.00
2018-03-28T10:57:40.773Z,69.90
2018-03-28T11:00:08.250Z,69.70
2018-03-28T11:02:35.723Z,69.60
2018-03-28T11:05:03.198Z,70.10
2018-03-28T11:07:30.661Z,70.10
2018-03-28T11:09:58.161Z,69.90
2018-03-28T11:12:25.688Z,70.30
2018-03-28T11:14:53.109Z,70.90
2018-03-28T11:17:20.672Z,71.60
2018-03-28T11:19:48.126Z,71.30
2018-03-28T11:22:15.587Z,70.90
2018-03-28T11:24:43.054Z,71.10
2018-03-28T11:27:10.521Z,71.20
2018-03-28T11:29:37.973Z,72.30
2018-03-28T11:32:05.444Z,73.00
2018-03-28T11:34:32.906Z,73.70
2018-03-28T11:37:00.390Z,73.20
2018-03-28T11:39:27.878Z,73.30
2018-03-28T11:41:55.324Z,74.10
2018-03-28T11:44:22.801Z,73.80
2018-03-28T11:46:51.048Z,74.10
2018-03-28T11:49:18.503Z,74.10
2018-03-28T11:51:45.994Z,75.80
2018-03-28T11:54:13.447Z,76.70
2018-03-28T11:56:40.904Z,77.40
2018-03-28T11:59:08.384Z,77.50
2018-03-28T12:01:35.840Z,77.20
2018-03-28T12:04:03.339Z,78.30
2018-03-28T12:06:30.784Z,78.10
2018-03-28T12:08:58.259Z,78.10
2018-03-28T12:11:27.388Z,78.30
2018-03-28T12:13:54.884Z,78.50
2018-03-28T12:16:22.329Z,78.60
2018-03-28T12:18:50.574Z,78.30
2018-03-28T12:21:18.016Z,78.30
2018-03-28T12:23:45.485Z,78.80
2018-03-28T12:26:12.960Z,79.00
2018-03-28T12:28:40.445Z,78.90
2018-03-28T12:31:07.921Z,79.10
2018-03-28T12:33:35.388Z,79.60
2018-03-28T12:36:02.836Z,79.50
2018-03-28T12:38:30.305Z,79.50
2018-03-28T12:40:57.785Z,79.30
2018-03-28T12:43:25.262Z,79.20
2018-03-28T12:45:52.712Z,80.10
2018-03-28T12:48:20.198Z,80.20
2018-03-28T12:50:47.677Z,80.80
2018-03-28T12:53:15.108Z,81.10
2018-03-28T12:55:42.610Z,80.70
2018-03-28T12:58:10.067Z,81.20
2018-03-28T13:00:37.566Z,81.40
2018-03-28T13:03:05.031Z,81.60
2018-03-28T13:05:32.501Z,82.00
2018-03-28T13:08:00.045Z,82.20
2018-03-28T13:10:28.320Z,81.10
2018-03-28T13:12:55.801Z,81.10
2018-03-28T13:15:23.260Z,81.70
2018-03-28T13:17:51.042Z,81.40
2018-03-28T13:20:18.513Z,81.60
2018-03-28T13:22:45.998Z,81.50
2018-03-28T13:25:13.566Z,81.60
2018-03-28T13:27:41.019Z,81.20
2018-03-28T13:30:08.461Z,81.70
2018-03-28T13:32:36.697Z,80.80
2018-03-28T13:35:04.188Z,80.80
2018-03-28T13:37:31.653Z,80.30
2018-03-28T13:39:59.137Z,80.50
2018-03-28T13:42:26.577Z,79.40
2018-03-28T13:44:54.126Z,78.70
2018-03-28T13:47:22.341Z,79.60
2018-03-28T13:49:49.794Z,79.50
2018-03-28T13:52:17.281Z,79.60
2018-03-28T13:54:44.728Z,79.50
2018-03-28T13:57:12.196Z,78.70
2018-03-28T13:59:39.641Z,79.60
2018-03-28T14:02:07.902Z,79.80
2018-03-28T14:04:35.379Z,79.80
2018-03-28T14:07:02.838Z,79.80
2018-03-28T14:09:30.288Z,79.70
2018-03-28T14:11:57.769Z,80.10
2018-03-28T14:14:25.239Z,79.80
2018-03-28T14:16:52.680Z,79.70
2018-03-28T14:19:20.167Z,79.50
2018-03-28T14:21:47.669Z,79.60
2018-03-28T14:24:15.091Z,79.40
2018-03-28T14:26:42.541Z,79.40
2018-03-28T14:29:10.018Z,79.90
2018-03-28T14:31:37.476Z,79.60
2018-03-28T14:34:04.936Z,79.80
2018-03-28T14:36:33.170Z,80.80
2018-03-28T14:39:00.612Z,80.80
2018-03-28T14:41:28.088Z,80.70
2018-03-28T14:43:55.536Z,80.90
2018-03-28T14:46:23.013Z,81.10
2018-03-28T14:48:50.465Z,81.80
2018-03-28T14:51:18.692Z,80.50
2018-03-28T14:53:46.158Z,80.50
2018-03-28T14:56:13.596Z,80.90
2018-03-28T14:58:41.845Z,81.30
2018-03-28T15:01:09.302Z,81.30
2018-03-28T15:03:36.784Z,81.50
2018-03-28T15:06:04.263Z,80.80
2018-03-28T15:08:31.710Z,81.10
2018-03-28T15:10:59.163Z,81.60
2018-03-28T15:13:26.629Z,82.10
2018-03-28T15:15:54.091Z,81.80
2018-03-28T15:18:21.538Z,81.00
2018-03-28T15:20:49.784Z,81.20
2018-03-28T15:23:17.228Z,81.20
2018-03-28T15:25:44.697Z,81.10
2018-03-28T15:28:12.194Z,81.10
2018-03-28T15:30:39.915Z,80.80
2018-03-28T15:33:08.146Z,81.40
2018-03-28T15:35:36.219Z,81.40
2018-03-28T15:38:03.697Z,80.00
2018-03-28T15:40:31.162Z,79.80
2018-03-28T15:42:58.596Z,77.50
2018-03-28T15:45:27.344Z,78.40
2018-03-28T15:47:54.792Z,78.40
2018-03-28T15:50:23.214Z,78.70
2018-03-28T15:52:50.656Z,79.90
2018-03-28T15:55:18.121Z,79.90
2018-03-28T15:57:45.581Z,80.70
2018-03-28T16:00:13.069Z,80.70
2018-03-28T16:02:40.523Z,80.50
2018-03-28T16:05:07.965Z,80.90
2018-03-28T16:07:36.211Z,80.60
2018-03-28T16:10:03.686Z,80.60
2018-03-28T16:12:31.217Z,81.10
2018-03-28T16:14:58.707Z,81.40
2018-03-28T16:17:26.149Z,81.40
2018-03-28T16:19:53.623Z,81.60
2018-03-28T16:22:21.072Z,81.50
2018-03-28T16:24:49.379Z,81.30
2018-03-28T16:27:16.855Z,81.20
2018-03-28T16:29:44.406Z,81.80
2018-03-28T16:32:12.773Z,82.00
2018-03-28T16:34:39.781Z,82.00
2018-03-28T16:37:07.584Z,82.00
2018-03-28T16:39:35.037Z,82.10
2018-03-28T16:42:02.636Z,82.30
2018-03-28T16:44:30.044Z,82.60
2018-03-28T16:46:58.275Z,82.90
2018-03-28T16:49:25.720Z,82.90
2018-03-28T16:51:53.193Z,83.00
2018-03-28T16:54:20.818Z,83.50
2018-03-28T16:56:48.277Z,83.30
2018-03-28T16:59:15.726Z,83.50
2018-03-28T17:01:43.409Z,83.50
2018-03-28T17:04:11.194Z,83.50
2018-03-28T17:06:38.649Z,83.40
2018-03-28T17:09:06.104Z,83.50
2018-03-28T17:11:33.580Z,83.50
2018-03-28T17:14:01.045Z,83.80
2018-03-28T17:16:28.566Z,83.80
2018-03-28T17:18:56.083Z,83.90
2018-03-28T17:21:23.561Z,84.00
2018-03-28T17:23:51.006Z,84.00
2018-03-28T17:26:18.509Z,84.10
2018-03-28T17:28:45.964Z,84.20
2018-03-28T17:31:14.182Z,84.30
2018-03-28T17:33:41.627Z,84.30
2018-03-28T17:36:09.085Z,84.20
2018-03-28T17:38:36.540Z,84.30
2018-03-28T17:41:03.993Z,84.40
2018-03-28T17:43:31.592Z,84.30
2018-03-28T17:45:59.044Z,84.30
2018-03-28T17:48:27.259Z,84.50
2018-03-28T17:50:54.718Z,84.40
2018-03-28T17:53:22.201Z,84.90
2018-03-28T17:55:49.668Z,84.90
2018-03-28T17:58:17.114Z,85.10
2018-03-28T18:00:44.775Z,85.30
2018-03-28T18:03:12.233Z,85.50
2018-03-28T18:05:40.448Z,85.60
2018-03-28T18:08:07.918Z,85.50
2018-03-28T18:10:35.396Z,85.50
2018-03-28T18:13:03.194Z,85.40
2018-03-28T18:15:30.691Z,85.60
2018-03-28T18:17:58.108Z,85.80
2018-03-28T18:20:25.583Z,85.90
2018-03-28T18:22:53.090Z,86.10
2018-03-28T18:25:20.541Z,86.20
2018-03-28T18:27:48.033Z,86.10
2018-03-28T18:30:15.457Z,86.20
2018-03-28T18:32:42.924Z,86.10
2018-03-28T18:35:10.372Z,86.30
2018-03-28T18:37:37.823Z,86.50
2018-03-28T18:40:05.286Z,86.60
2018-03-28T18:42:32.830Z,86.80
2018-03-28T18:45:00.308Z,86.90
2018-03-28T18:47:27.783Z,86.50
2018-03-28T18:49:55.278Z,86.20
2018-03-28T18:52:23.576Z,86.30
2018-03-28T18:54:51.869Z,85.30
2018-03-28T18:57:20.094Z,84.90
2018-03-28T18:59:47.557Z,84.90
2018-03-28T19:02:15.013Z,84.50
2018-03-28T19:04:42.458Z,83.50
2018-03-28T19:07:09.929Z,83.30
2018-03-28T19:09:37.373Z,83.00
2018-03-28T19:12:04.961Z,83.40
2018-03-28T19:14:32.401Z,83.10
2018-03-28T19:17:00.552Z,83.30
2018-03-28T19:19:28.014Z,82.70
2018-03-28T19:21:55.587Z,83.40
2018-03-28T19:24:23.049Z,83.70
2018-03-28T19:26:51.259Z,82.80
2018-03-28T19:29:18.737Z,82.80
2018-03-28T19:31:46.188Z,83.00
2018-03-28T19:34:13.667Z,83.20
2018-03-28T19:36:41.123Z,83.30
2018-03-28T19:39:08.615Z,83.00
2018-03-28T19:41:36.149Z,82.70
2018-03-28T19:44:04.356Z,83.10
2018-03-28T19:46:31.860Z,83.10
2018-03-28T19:48:59.305Z,82.70
2018-03-28T19:51:26.782Z,83.10
2018-03-28T19:53:54.249Z,83.30
2018-03-28T19:56:22.429Z,83.10
2018-03-28T19:58:49.900Z,82.40
2018-03-28T20:01:17.397Z,82.00
2018-03-28T20:03:44.866Z,80.40
2018-03-28T20:06:12.323Z,80.90
2018-03-28T20:08:39.811Z,81.10
2018-03-28T20:11:07.274Z,79.90
2018-03-28T20:13:34.785Z,79.60
2018-03-28T20:16:02.239Z,79.40
2018-03-28T20:18:29.685Z,78.70
2018-03-28T20:20:57.160Z,79.40
2018-03-28T20:23:24.608Z,79.00
2018-03-28T20:25:52.076Z,79.40
2018-03-28T20:28:19.545Z,79.60
2018-03-28T20:30:47.013Z,79.40
2018-03-28T20:33:14.478Z,79.40
2018-03-28T20:35:41.929Z,80.30
2018-03-28T20:38:10.161Z,79.80
2018-03-28T20:40:37.641Z,79.70
2018-03-28T20:43:05.122Z,79.50
2018-03-28T20:45:32.564Z,79.20
2018-03-28T20:48:00.061Z,79.40
2018-03-28T20:50:27.498Z,80.00
2018-03-28T20:52:54.964Z,80.20
2018-03-28T20:55:22.415Z,79.90
2018-03-28T20:57:49.877Z,80.20
2018-03-28T21:00:18.085Z,79.70
2018-03-28T21:02:45.612Z,79.70
2018-03-28T21:05:13.059Z,79.50
2018-03-28T21:07:43.492Z,79.40
2018-03-28T21:10:10.962Z,79.00
2018-03-28T21:12:38.418Z,78.70
2018-03-28T21:15:05.859Z,79.30
2018-03-28T21:17:33.318Z,79.50
2018-03-28T21:20:01.545Z,78.90
2018-03-28T21:22:29.009Z,78.80
2018-03-28T21:24:56.477Z,79.10
2018-03-28T21:27:23.948Z,78.80
2018-03-28T21:29:51.380Z,78.90
2018-03-28T21:32:19.638Z,79.30
2018-03-28T21:34:47.138Z,79.30
2018-03-28T21:37:15.364Z,79.20
2018-03-28T21:39:42.855Z,79.20
2018-03-28T21:42:10.322Z,78.70
2018-03-28T21:44:38.540Z,79.30
2018-03-28T21:47:06.009Z,79.30
2018-03-28T21:49:33.460Z,79.10
2018-03-28T21:52:00.950Z,79.00
2018-03-28T21:54:29.172Z,79.20
2018-03-28T21:56:56.649Z,79.60
2018-03-28T21:59:24.126Z,79.60
2018-03-28T22:01:51.576Z,79.60
2018-03-28T22:04:19.046Z,79.30
2018-03-28T22:06:47.291Z,78.90
2018-03-28T22:09:14.745Z,78.90
2018-03-28T22:11:42.229Z,79.20
2018-03-28T22:14:09.690Z,78.40
2018-03-28T22:16:37.161Z,78.40
2018-03-28T22:19:04.674Z,78.70
2018-03-28T22:21:32.887Z,78.90
2018-03-28T22:24:00.330Z,78.80
2018-03-28T22:26:28.565Z,79.30
2018-03-28T22:28:56.036Z,79.20
2018-03-28T22:31:23.541Z,78.90
2018-03-28T22:33:50.977Z,78.60
2018-03-28T22:36:18.452Z,78.70
2018-03-28T22:38:45.920Z,78.60
2018-03-28T22:41:13.390Z,78.50
2018-03-28T22:43:41.015Z,78.60
2018-03-28T22:46:09.233Z,78.30
2018-03-28T22:48:36.704Z,78.30
2018-03-28T22:51:04.163Z,78.50
2018-03-28T22:53:31.674Z,78.40
2018-03-28T22:55:59.162Z,78.60
2018-03-28T22:58:26.591Z,78.60
2018-03-28T23:00:54.068Z,78.60
2018-03-28T23:03:21.543Z,78.60
2018-03-28T23:05:49.006Z,78.70
2018-03-28T23:08:16.472Z,78.80
2018-03-28T23:10:43.936Z,78.80
2018-03-28T23:13:11.441Z,79.90
2018-03-28T23:15:39.687Z,80.00
2018-03-28T23:18:07.147Z,80.00
2018-03-28T23:20:34.609Z,80.60
2018-03-28T23:23:02.089Z,81.00
2018-03-28T23:25:29.532Z,81.20
2018-03-28T23:27:56.985Z,81.10
2018-03-28T23:30:25.256Z,81.60
2018-03-28T23:32:52.725Z,81.50
2018-03-28T23:35:21.121Z,81.80
2018-03-28T23:37:48.570Z,81.90
2018-03-28T23:40:16.053Z,81.90
2018-03-28T23:42:43.505Z,81.70
2018-03-28T23:45:10.974Z,81.40
2018-03-28T23:47:38.442Z,81.30
2018-03-28T23:50:05.964Z,81.10
2018-03-28T23:52:33.403Z,81.00
2018-03-28T23:55:00.873Z,80.70
2018-03-28T23:57:28.346Z,80.70
2018-03-28T23:59:55.824Z,81.00
